sensor_id;sensor_type;location;lat;lon;timestamp;pressure;altitude;pressure_sealevel;temperature;humidity
44044;BME280;29709;52.396;16.796;2023-11-21T00:02:11;100858.94;;;8.46;95.50
44044;BME280;29709;52.396;16.796;2023-11-21T00:05:25;100863.07;;;8.50;96.06
44044;BME280;29709;52.396;16.796;2023-11-21T00:08:39;100851.68;;;8.55;95.21
44044;BME280;29709;52.396;16.796;2023-11-21T00:11:53;100856.84;;;8.58;95.22
44044;BME280;29709;52.396;16.796;2023-11-21T00:15:12;100857.27;;;8.53;94.65
44044;BME280;29709;52.396;16.796;2023-11-21T00:18:25;100856.03;;;8.48;94.81
44044;BME280;29709;52.396;16.796;2023-11-21T00:21:39;100863.55;;;8.46;94.81
44044;BME280;29709;52.396;16.796;2023-11-21T00:24:55;100866.99;;;8.48;94.35
44044;BME280;29709;52.396;16.796;2023-11-21T00:28:09;100873.48;;;8.47;94.06
44044;BME280;29709;52.396;16.796;2023-11-21T00:31:22;100883.74;;;8.45;93.55
44044;BME280;29709;52.396;16.796;2023-11-21T00:34:36;100886.92;;;8.40;93.85
44044;BME280;29709;52.396;16.796;2023-11-21T00:37:49;100891.70;;;8.28;93.08
44044;BME280;29709;52.396;16.796;2023-11-21T00:41:03;100895.90;;;8.23;93.07
44044;BME280;29709;52.396;16.796;2023-11-21T00:44:18;100890.92;;;8.08;92.80
44044;BME280;29709;52.396;16.796;2023-11-21T00:47:32;100891.54;;;8.02;93.31
44044;BME280;29709;52.396;16.796;2023-11-21T00:50:45;100897.57;;;8.06;93.27
44044;BME280;29709;52.396;16.796;2023-11-21T00:53:59;100896.43;;;7.99;92.88
44044;BME280;29709;52.396;16.796;2023-11-21T00:57:12;100895.17;;;7.93;92.91
44044;BME280;29709;52.396;16.796;2023-11-21T01:00:27;100899.20;;;7.89;92.82
44044;BME280;29709;52.396;16.796;2023-11-21T01:03:40;100894.77;;;7.78;92.57
44044;BME280;29709;52.396;16.796;2023-11-21T01:06:54;100900.00;;;7.62;92.53
44044;BME280;29709;52.396;16.796;2023-11-21T01:10:08;100902.60;;;7.54;93.06
44044;BME280;29709;52.396;16.796;2023-11-21T01:13:22;100909.80;;;7.45;93.02
44044;BME280;29709;52.396;16.796;2023-11-21T01:16:36;100916.14;;;7.36;92.82
44044;BME280;29709;52.396;16.796;2023-11-21T01:19:49;100917.45;;;7.22;92.44
44044;BME280;29709;52.396;16.796;2023-11-21T01:23:03;100921.45;;;7.18;93.07
44044;BME280;29709;52.396;16.796;2023-11-21T01:26:16;100924.07;;;7.20;93.22
44044;BME280;29709;52.396;16.796;2023-11-21T01:33:01;100934.25;;;7.08;93.40
44044;BME280;29709;52.396;16.796;2023-11-21T01:36:15;100932.97;;;7.03;93.78
44044;BME280;29709;52.396;16.796;2023-11-21T01:39:29;100921.59;;;7.07;93.66
44044;BME280;29709;52.396;16.796;2023-11-21T01:42:43;100922.20;;;7.11;93.53
44044;BME280;29709;52.396;16.796;2023-11-21T01:45:58;100927.91;;;6.98;92.80
44044;BME280;29709;52.396;16.796;2023-11-21T01:49:12;100933.38;;;6.79;93.22
44044;BME280;29709;52.396;16.796;2023-11-21T01:52:27;100930.88;;;6.66;93.96
44044;BME280;29709;52.396;16.796;2023-11-21T01:55:42;100928.73;;;6.60;93.73
44044;BME280;29709;52.396;16.796;2023-11-21T01:58:57;100956.89;;;6.60;94.49
44044;BME280;29709;52.396;16.796;2023-11-21T02:02:10;100949.96;;;6.47;95.09
44044;BME280;29709;52.396;16.796;2023-11-21T02:05:24;100946.70;;;6.62;94.98
44044;BME280;29709;52.396;16.796;2023-11-21T02:08:38;100949.13;;;6.65;94.48
44044;BME280;29709;52.396;16.796;2023-11-21T02:11:55;100952.84;;;6.55;94.34
44044;BME280;29709;52.396;16.796;2023-11-21T02:15:10;100959.60;;;6.51;94.23
44044;BME280;29709;52.396;16.796;2023-11-21T02:18:28;100968.21;;;6.56;94.48
44044;BME280;29709;52.396;16.796;2023-11-21T02:21:42;100969.79;;;6.49;94.26
44044;BME280;29709;52.396;16.796;2023-11-21T02:24:57;100977.66;;;6.42;94.45
44044;BME280;29709;52.396;16.796;2023-11-21T02:28:11;100983.98;;;6.43;94.92
44044;BME280;29709;52.396;16.796;2023-11-21T02:31:33;100984.30;;;6.49;94.84
44044;BME280;29709;52.396;16.796;2023-11-21T02:34:46;100984.59;;;6.46;94.28
44044;BME280;29709;52.396;16.796;2023-11-21T02:38:00;100987.85;;;6.40;94.19
44044;BME280;29709;52.396;16.796;2023-11-21T02:41:14;100979.57;;;6.21;94.59
44044;BME280;29709;52.396;16.796;2023-11-21T02:44:27;100991.02;;;6.15;94.62
44044;BME280;29709;52.396;16.796;2023-11-21T02:47:41;100985.98;;;6.10;94.81
44044;BME280;29709;52.396;16.796;2023-11-21T02:50:54;100984.92;;;6.01;94.64
44044;BME280;29709;52.396;16.796;2023-11-21T02:54:08;100986.20;;;5.97;94.39
44044;BME280;29709;52.396;16.796;2023-11-21T02:57:22;100996.83;;;6.00;95.01
44044;BME280;29709;52.396;16.796;2023-11-21T03:00:35;100981.60;;;5.98;94.77
44044;BME280;29709;52.396;16.796;2023-11-21T03:03:49;100987.06;;;5.98;95.08
44044;BME280;29709;52.396;16.796;2023-11-21T03:07:03;100985.73;;;5.92;94.65
44044;BME280;29709;52.396;16.796;2023-11-21T03:10:19;100993.66;;;5.95;95.35
44044;BME280;29709;52.396;16.796;2023-11-21T03:13:32;100993.77;;;5.94;94.94
44044;BME280;29709;52.396;16.796;2023-11-21T03:16:45;101000.54;;;5.78;94.35
44044;BME280;29709;52.396;16.796;2023-11-21T03:19:59;100994.73;;;5.72;94.75
44044;BME280;29709;52.396;16.796;2023-11-21T03:23:13;101015.55;;;5.73;94.73
44044;BME280;29709;52.396;16.796;2023-11-21T03:26:26;101015.51;;;5.63;95.06
44044;BME280;29709;52.396;16.796;2023-11-21T03:29:43;101013.88;;;5.61;95.11
44044;BME280;29709;52.396;16.796;2023-11-21T03:32:57;101022.69;;;5.64;95.35
44044;BME280;29709;52.396;16.796;2023-11-21T03:43:12;101033.77;;;5.72;94.98
44044;BME280;29709;52.396;16.796;2023-11-21T03:46:26;101029.19;;;5.73;94.59
44044;BME280;29709;52.396;16.796;2023-11-21T03:49:39;101040.09;;;5.73;94.67
44044;BME280;29709;52.396;16.796;2023-11-21T03:52:53;101035.18;;;5.67;93.54
44044;BME280;29709;52.396;16.796;2023-11-21T03:56:06;101030.19;;;5.72;93.97
44044;BME280;29709;52.396;16.796;2023-11-21T03:59:20;101036.55;;;5.61;93.79
44044;BME280;29709;52.396;16.796;2023-11-21T04:02:34;101040.55;;;5.57;93.49
44044;BME280;29709;52.396;16.796;2023-11-21T04:05:48;101024.10;;;5.47;93.10
44044;BME280;29709;52.396;16.796;2023-11-21T04:09:01;101022.51;;;5.45;93.45
44044;BME280;29709;52.396;16.796;2023-11-21T04:16:00;101041.50;;;5.35;92.76
44044;BME280;29709;52.396;16.796;2023-11-21T04:19:16;101036.37;;;5.21;92.20
44044;BME280;29709;52.396;16.796;2023-11-21T04:22:30;101039.94;;;5.10;91.89
44044;BME280;29709;52.396;16.796;2023-11-21T04:25:44;101048.05;;;5.01;91.93
44044;BME280;29709;52.396;16.796;2023-11-21T04:28:57;101057.71;;;4.93;92.15
44044;BME280;29709;52.396;16.796;2023-11-21T04:32:11;101064.28;;;4.80;92.25
44044;BME280;29709;52.396;16.796;2023-11-21T04:35:25;101077.26;;;4.76;92.80
44044;BME280;29709;52.396;16.796;2023-11-21T04:38:39;101073.20;;;4.71;92.56
44044;BME280;29709;52.396;16.796;2023-11-21T04:41:53;101080.51;;;4.70;92.87
44044;BME280;29709;52.396;16.796;2023-11-21T04:48:32;101087.16;;;4.55;92.70
44044;BME280;29709;52.396;16.796;2023-11-21T04:51:46;101062.16;;;4.27;92.86
44044;BME280;29709;52.396;16.796;2023-11-21T04:58:45;101116.08;;;4.33;92.67
44044;BME280;29709;52.396;16.796;2023-11-21T05:01:58;101116.20;;;4.32;92.54
44044;BME280;29709;52.396;16.796;2023-11-21T05:05:13;101114.35;;;4.32;92.71
44044;BME280;29709;52.396;16.796;2023-11-21T05:08:27;101117.69;;;4.36;92.64
44044;BME280;29709;52.396;16.796;2023-11-21T05:15:24;101133.68;;;4.52;92.82
44044;BME280;29709;52.396;16.796;2023-11-21T05:18:38;101131.68;;;4.43;91.34
44044;BME280;29709;52.396;16.796;2023-11-21T05:21:52;101131.41;;;4.34;90.69
44044;BME280;29709;52.396;16.796;2023-11-21T05:25:06;101123.60;;;4.19;90.71
44044;BME280;29709;52.396;16.796;2023-11-21T05:28:23;101150.64;;;4.09;90.92
44044;BME280;29709;52.396;16.796;2023-11-21T05:35:23;101164.37;;;4.08;91.22
44044;BME280;29709;52.396;16.796;2023-11-21T05:38:36;101159.38;;;4.01;90.61
44044;BME280;29709;52.396;16.796;2023-11-21T05:41:50;101158.63;;;3.99;91.24
44044;BME280;29709;52.396;16.796;2023-11-21T05:45:04;101159.02;;;4.06;90.63
44044;BME280;29709;52.396;16.796;2023-11-21T05:48:24;101163.95;;;4.01;89.24
44044;BME280;29709;52.396;16.796;2023-11-21T05:51:39;101154.18;;;3.74;89.39
44044;BME280;29709;52.396;16.796;2023-11-21T05:54:52;101179.43;;;3.76;90.11
44044;BME280;29709;52.396;16.796;2023-11-21T05:58:06;101180.17;;;3.79;90.24
44044;BME280;29709;52.396;16.796;2023-11-21T06:01:20;101181.16;;;3.78;89.93
44044;BME280;29709;52.396;16.796;2023-11-21T06:04:33;101179.87;;;3.70;89.94
44044;BME280;29709;52.396;16.796;2023-11-21T06:07:47;101189.58;;;3.62;90.26
44044;BME280;29709;52.396;16.796;2023-11-21T06:11:00;101204.91;;;3.63;90.48
44044;BME280;29709;52.396;16.796;2023-11-21T06:14:14;101209.27;;;3.65;91.10
44044;BME280;29709;52.396;16.796;2023-11-21T06:17:33;101219.79;;;3.70;89.84
44044;BME280;29709;52.396;16.796;2023-11-21T06:20:49;101229.16;;;3.66;90.31
44044;BME280;29709;52.396;16.796;2023-11-21T06:24:04;101221.57;;;3.58;89.81
44044;BME280;29709;52.396;16.796;2023-11-21T06:27:18;101234.28;;;3.58;90.72
44044;BME280;29709;52.396;16.796;2023-11-21T06:30:31;101230.89;;;3.67;90.24
44044;BME280;29709;52.396;16.796;2023-11-21T06:33:45;101246.89;;;3.59;89.75
44044;BME280;29709;52.396;16.796;2023-11-21T06:37:00;101252.77;;;3.53;89.91
44044;BME280;29709;52.396;16.796;2023-11-21T06:40:14;101261.81;;;3.40;89.64
44044;BME280;29709;52.396;16.796;2023-11-21T06:43:34;101263.45;;;3.30;89.66
44044;BME280;29709;52.396;16.796;2023-11-21T06:46:48;101271.72;;;3.29;89.90
44044;BME280;29709;52.396;16.796;2023-11-21T06:50:03;101268.38;;;3.25;89.76
44044;BME280;29709;52.396;16.796;2023-11-21T06:53:17;101272.06;;;3.24;89.98
44044;BME280;29709;52.396;16.796;2023-11-21T06:56:30;101274.34;;;3.17;90.09
44044;BME280;29709;52.396;16.796;2023-11-21T06:59:44;101276.63;;;3.24;90.26
44044;BME280;29709;52.396;16.796;2023-11-21T07:02:57;101280.09;;;3.26;90.21
44044;BME280;29709;52.396;16.796;2023-11-21T07:06:10;101278.89;;;3.30;89.98
44044;BME280;29709;52.396;16.796;2023-11-21T07:09:24;101281.51;;;3.18;89.74
44044;BME280;29709;52.396;16.796;2023-11-21T07:12:38;101277.70;;;3.21;89.92
44044;BME280;29709;52.396;16.796;2023-11-21T07:15:53;101293.80;;;3.24;90.14
44044;BME280;29709;52.396;16.796;2023-11-21T07:19:08;101295.41;;;3.27;90.50
44044;BME280;29709;52.396;16.796;2023-11-21T07:22:22;101301.27;;;3.21;90.21
44044;BME280;29709;52.396;16.796;2023-11-21T07:25:37;101309.64;;;3.17;90.78
44044;BME280;29709;52.396;16.796;2023-11-21T07:28:50;101312.47;;;3.29;91.16
44044;BME280;29709;52.396;16.796;2023-11-21T07:32:04;101308.46;;;3.34;91.06
44044;BME280;29709;52.396;16.796;2023-11-21T07:35:17;101317.25;;;3.38;90.33
44044;BME280;29709;52.396;16.796;2023-11-21T07:38:30;101320.52;;;3.30;90.21
44044;BME280;29709;52.396;16.796;2023-11-21T07:41:46;101322.58;;;3.27;90.46
44044;BME280;29709;52.396;16.796;2023-11-21T07:45:04;101335.41;;;3.25;90.58
44044;BME280;29709;52.396;16.796;2023-11-21T07:48:18;101331.82;;;3.24;90.58
44044;BME280;29709;52.396;16.796;2023-11-21T07:51:31;101334.09;;;3.17;90.26
44044;BME280;29709;52.396;16.796;2023-11-21T07:54:47;101338.20;;;3.10;90.18
44044;BME280;29709;52.396;16.796;2023-11-21T07:58:00;101338.32;;;3.09;90.73
44044;BME280;29709;52.396;16.796;2023-11-21T08:04:41;101353.87;;;3.19;90.28
44044;BME280;29709;52.396;16.796;2023-11-21T08:07:54;101353.11;;;3.17;90.22
44044;BME280;29709;52.396;16.796;2023-11-21T08:11:08;101362.54;;;3.12;89.97
44044;BME280;29709;52.396;16.796;2023-11-21T08:14:23;101362.54;;;3.12;90.12
44044;BME280;29709;52.396;16.796;2023-11-21T08:17:39;101355.59;;;3.08;90.11
44044;BME280;29709;52.396;16.796;2023-11-21T08:20:54;101368.93;;;2.98;90.35
44044;BME280;29709;52.396;16.796;2023-11-21T08:24:08;101358.72;;;3.02;90.92
44044;BME280;29709;52.396;16.796;2023-11-21T08:27:23;101364.07;;;3.03;90.56
44044;BME280;29709;52.396;16.796;2023-11-21T08:30:37;101364.95;;;3.04;90.73
44044;BME280;29709;52.396;16.796;2023-11-21T08:33:50;101377.73;;;3.02;91.37
44044;BME280;29709;52.396;16.796;2023-11-21T08:37:04;101375.80;;;3.04;91.05
44044;BME280;29709;52.396;16.796;2023-11-21T08:40:19;101393.27;;;3.00;90.88
44044;BME280;29709;52.396;16.796;2023-11-21T08:43:37;101402.50;;;2.97;91.06
44044;BME280;29709;52.396;16.796;2023-11-21T08:46:53;101409.55;;;3.00;91.02
44044;BME280;29709;52.396;16.796;2023-11-21T08:50:07;101401.96;;;2.92;91.17
44044;BME280;29709;52.396;16.796;2023-11-21T08:53:21;101410.10;;;2.92;91.44
44044;BME280;29709;52.396;16.796;2023-11-21T08:56:35;101408.55;;;2.88;91.17
44044;BME280;29709;52.396;16.796;2023-11-21T09:00:45;101417.31;;;2.79;91.17
44044;BME280;29709;52.396;16.796;2023-11-21T09:03:59;101416.09;;;2.70;91.29
44044;BME280;29709;52.396;16.796;2023-11-21T09:07:12;101420.75;;;2.68;91.51
44044;BME280;29709;52.396;16.796;2023-11-21T09:10:26;101421.62;;;2.69;91.44
44044;BME280;29709;52.396;16.796;2023-11-21T09:13:41;101430.73;;;2.68;91.11
44044;BME280;29709;52.396;16.796;2023-11-21T09:16:56;101430.95;;;2.65;90.92
44044;BME280;29709;52.396;16.796;2023-11-21T09:20:10;101437.35;;;2.64;91.20
44044;BME280;29709;52.396;16.796;2023-11-21T09:23:24;101442.93;;;2.75;91.57
44044;BME280;29709;52.396;16.796;2023-11-21T09:26:38;101438.38;;;2.75;90.57
44044;BME280;29709;52.396;16.796;2023-11-21T09:29:52;101441.59;;;2.68;90.89
44044;BME280;29709;52.396;16.796;2023-11-21T09:33:06;101442.36;;;2.70;90.89
44044;BME280;29709;52.396;16.796;2023-11-21T09:36:19;101446.91;;;2.69;91.13
44044;BME280;29709;52.396;16.796;2023-11-21T09:39:39;101446.15;;;2.67;90.72
44044;BME280;29709;52.396;16.796;2023-11-21T09:42:55;101452.19;;;2.58;90.60
44044;BME280;29709;52.396;16.796;2023-11-21T09:46:13;101444.15;;;2.56;91.08
44044;BME280;29709;52.396;16.796;2023-11-21T09:49:35;101454.91;;;2.58;90.70
44044;BME280;29709;52.396;16.796;2023-11-21T09:52:57;101443.66;;;2.64;91.30
44044;BME280;29709;52.396;16.796;2023-11-21T09:56:13;101453.75;;;2.62;90.57
44044;BME280;29709;52.396;16.796;2023-11-21T09:59:37;101461.02;;;2.47;90.42
44044;BME280;29709;52.396;16.796;2023-11-21T10:02:52;101464.34;;;2.38;90.58
44044;BME280;29709;52.396;16.796;2023-11-21T10:06:06;101471.44;;;2.41;90.78
44044;BME280;29709;52.396;16.796;2023-11-21T10:09:23;101477.30;;;2.47;90.92
44044;BME280;29709;52.396;16.796;2023-11-21T10:12:38;101471.19;;;2.58;90.90
44044;BME280;29709;52.396;16.796;2023-11-21T10:15:53;101471.50;;;2.53;90.01
44044;BME280;29709;52.396;16.796;2023-11-21T10:19:11;101479.57;;;2.41;90.10
44044;BME280;29709;52.396;16.796;2023-11-21T10:22:29;101471.93;;;2.33;90.44
44044;BME280;29709;52.396;16.796;2023-11-21T10:25:43;101480.34;;;2.28;90.94
44044;BME280;29709;52.396;16.796;2023-11-21T10:29:00;101474.84;;;2.30;90.77
44044;BME280;29709;52.396;16.796;2023-11-21T10:32:16;101472.20;;;2.28;90.90
44044;BME280;29709;52.396;16.796;2023-11-21T10:38:54;101476.75;;;2.28;90.67
44044;BME280;29709;52.396;16.796;2023-11-21T10:42:10;101476.27;;;2.36;91.07
44044;BME280;29709;52.396;16.796;2023-11-21T10:45:24;101478.28;;;2.46;90.32
44044;BME280;29709;52.396;16.796;2023-11-21T10:48:37;101475.08;;;2.54;90.87
44044;BME280;29709;52.396;16.796;2023-11-21T10:51:53;101475.74;;;2.57;90.03
44044;BME280;29709;52.396;16.796;2023-11-21T10:58:35;101490.32;;;2.42;89.10
44044;BME280;29709;52.396;16.796;2023-11-21T11:01:50;101486.84;;;2.40;89.75
44044;BME280;29709;52.396;16.796;2023-11-21T11:08:37;101505.23;;;2.35;89.77
44044;BME280;29709;52.396;16.796;2023-11-21T11:11:51;101506.11;;;2.36;90.50
44044;BME280;29709;52.396;16.796;2023-11-21T11:15:08;101513.16;;;2.38;90.85
44044;BME280;29709;52.396;16.796;2023-11-21T11:18:24;101507.28;;;2.31;90.67
44044;BME280;29709;52.396;16.796;2023-11-21T11:38:50;101541.09;;;2.26;90.06
44044;BME280;29709;52.396;16.796;2023-11-21T11:42:08;101554.64;;;2.26;90.42
44044;BME280;29709;52.396;16.796;2023-11-21T11:45:21;101555.62;;;2.25;89.67
44044;BME280;29709;52.396;16.796;2023-11-21T11:48:37;101571.48;;;2.02;89.89
44044;BME280;29709;52.396;16.796;2023-11-21T11:55:23;101582.88;;;1.79;91.12
44044;BME280;29709;52.396;16.796;2023-11-21T11:58:41;101589.26;;;1.78;91.50
44044;BME280;29709;52.396;16.796;2023-11-21T12:01:57;101588.77;;;1.86;91.46
44044;BME280;29709;52.396;16.796;2023-11-21T12:05:16;101601.87;;;1.93;91.91
44044;BME280;29709;52.396;16.796;2023-11-21T12:08:31;101601.97;;;1.92;90.73
44044;BME280;29709;52.396;16.796;2023-11-21T12:11:50;101602.23;;;1.87;90.42
44044;BME280;29709;52.396;16.796;2023-11-21T12:15:04;101597.98;;;1.83;90.76
44044;BME280;29709;52.396;16.796;2023-11-21T12:18:18;101609.43;;;1.88;90.90
44044;BME280;29709;52.396;16.796;2023-11-21T12:21:32;101603.91;;;1.90;89.82
44044;BME280;29709;52.396;16.796;2023-11-21T12:24:47;101599.35;;;1.90;89.66
44044;BME280;29709;52.396;16.796;2023-11-21T12:28:01;101603.13;;;1.88;89.33
44044;BME280;29709;52.396;16.796;2023-11-21T12:31:16;101607.38;;;1.92;89.69
44044;BME280;29709;52.396;16.796;2023-11-21T12:34:29;101606.71;;;1.88;89.03
44044;BME280;29709;52.396;16.796;2023-11-21T12:37:44;101612.79;;;1.78;88.52
44044;BME280;29709;52.396;16.796;2023-11-21T12:40:58;101616.29;;;1.64;89.43
44044;BME280;29709;52.396;16.796;2023-11-21T12:44:12;101618.13;;;1.63;89.45
44044;BME280;29709;52.396;16.796;2023-11-21T12:47:28;101614.46;;;1.64;89.58
44044;BME280;29709;52.396;16.796;2023-11-21T12:50:41;101623.45;;;1.65;89.82
44044;BME280;29709;52.396;16.796;2023-11-21T12:53:55;101625.63;;;1.74;90.22
44044;BME280;29709;52.396;16.796;2023-11-21T12:57:09;101624.55;;;1.77;89.66
44044;BME280;29709;52.396;16.796;2023-11-21T13:00:29;101631.75;;;1.78;89.85
44044;BME280;29709;52.396;16.796;2023-11-21T13:03:50;101645.11;;;1.81;89.81
44044;BME280;29709;52.396;16.796;2023-11-21T13:07:04;101652.18;;;1.83;89.35
44044;BME280;29709;52.396;16.796;2023-11-21T13:10:27;101661.05;;;1.71;88.52
44044;BME280;29709;52.396;16.796;2023-11-21T13:13:44;101662.01;;;1.70;88.60
44044;BME280;29709;52.396;16.796;2023-11-21T13:16:58;101673.72;;;1.70;88.22
44044;BME280;29709;52.396;16.796;2023-11-21T13:20:12;101671.26;;;1.66;88.05
44044;BME280;29709;52.396;16.796;2023-11-21T13:23:34;101677.74;;;1.63;87.94
44044;BME280;29709;52.396;16.796;2023-11-21T13:26:50;101686.74;;;1.64;88.19
44044;BME280;29709;52.396;16.796;2023-11-21T13:30:04;101686.84;;;1.62;87.80
44044;BME280;29709;52.396;16.796;2023-11-21T13:33:21;101700.48;;;1.61;87.79
44044;BME280;29709;52.396;16.796;2023-11-21T13:36:40;101695.94;;;1.61;88.16
44044;BME280;29709;52.396;16.796;2023-11-21T13:39:55;101710.78;;;1.70;88.61
44044;BME280;29709;52.396;16.796;2023-11-21T13:43:09;101708.52;;;1.78;88.42
44044;BME280;29709;52.396;16.796;2023-11-21T13:46:26;101705.70;;;1.80;88.52
44044;BME280;29709;52.396;16.796;2023-11-21T13:49:40;101718.48;;;1.78;87.47
44044;BME280;29709;52.396;16.796;2023-11-21T13:52:55;101727.54;;;1.77;87.95
44044;BME280;29709;52.396;16.796;2023-11-21T13:56:09;101722.12;;;1.77;86.92
44044;BME280;29709;52.396;16.796;2023-11-21T13:59:22;101725.46;;;1.66;86.76
44044;BME280;29709;52.396;16.796;2023-11-21T14:02:43;101733.52;;;1.67;87.62
44044;BME280;29709;52.396;16.796;2023-11-21T14:05:59;101741.47;;;1.70;87.04
44044;BME280;29709;52.396;16.796;2023-11-21T14:09:20;101737.70;;;1.73;86.57
44044;BME280;29709;52.396;16.796;2023-11-21T14:12:38;101744.18;;;1.70;86.07
44044;BME280;29709;52.396;16.796;2023-11-21T14:15:55;101761.05;;;1.60;86.18
44044;BME280;29709;52.396;16.796;2023-11-21T14:19:15;101772.48;;;1.65;86.45
44044;BME280;29709;52.396;16.796;2023-11-21T14:22:31;101784.14;;;1.67;86.33
44044;BME280;29709;52.396;16.796;2023-11-21T14:25:44;101777.48;;;1.72;86.05
44044;BME280;29709;52.396;16.796;2023-11-21T14:29:01;101786.39;;;1.74;85.79
44044;BME280;29709;52.396;16.796;2023-11-21T14:32:15;101780.88;;;1.76;85.05
44044;BME280;29709;52.396;16.796;2023-11-21T14:35:31;101797.14;;;1.76;85.50
44044;BME280;29709;52.396;16.796;2023-11-21T14:38:46;101796.98;;;1.79;85.00
44044;BME280;29709;52.396;16.796;2023-11-21T14:41:59;101805.02;;;1.81;85.21
44044;BME280;29709;52.396;16.796;2023-11-21T14:45:15;101806.95;;;1.79;84.07
44044;BME280;29709;52.396;16.796;2023-11-21T14:48:34;101816.48;;;1.70;84.58
44044;BME280;29709;52.396;16.796;2023-11-21T14:51:56;101824.94;;;1.64;84.07
44044;BME280;29709;52.396;16.796;2023-11-21T14:55:16;101814.83;;;1.67;84.13
44044;BME280;29709;52.396;16.796;2023-11-21T14:58:42;101820.48;;;1.63;83.72
44044;BME280;29709;52.396;16.796;2023-11-21T15:01:57;101823.88;;;1.66;83.16
44044;BME280;29709;52.396;16.796;2023-11-21T15:05:11;101820.76;;;1.58;82.97
44044;BME280;29709;52.396;16.796;2023-11-21T15:08:31;101827.38;;;1.53;83.51
44044;BME280;29709;52.396;16.796;2023-11-21T15:11:45;101834.39;;;1.57;83.53
44044;BME280;29709;52.396;16.796;2023-11-21T15:15:01;101825.21;;;1.59;83.12
44044;BME280;29709;52.396;16.796;2023-11-21T15:18:17;101837.70;;;1.62;82.09
44044;BME280;29709;52.396;16.796;2023-11-21T15:21:31;101840.51;;;1.60;82.29
44044;BME280;29709;52.396;16.796;2023-11-21T15:24:53;101837.43;;;1.66;83.29
44044;BME280;29709;52.396;16.796;2023-11-21T15:28:07;101847.07;;;1.72;83.14
44044;BME280;29709;52.396;16.796;2023-11-21T15:31:21;101856.07;;;1.72;82.46
44044;BME280;29709;52.396;16.796;2023-11-21T15:34:39;101856.95;;;1.73;82.85
44044;BME280;29709;52.396;16.796;2023-11-21T15:37:52;101860.62;;;1.72;82.38
44044;BME280;29709;52.396;16.796;2023-11-21T15:41:06;101862.55;;;1.70;82.33
44044;BME280;29709;52.396;16.796;2023-11-21T15:44:25;101860.95;;;1.66;82.64
44044;BME280;29709;52.396;16.796;2023-11-21T15:47:41;101871.73;;;1.67;82.76
44044;BME280;29709;52.396;16.796;2023-11-21T15:50:54;101872.75;;;1.65;82.94
44044;BME280;29709;52.396;16.796;2023-11-21T15:54:11;101885.88;;;1.72;83.24
44044;BME280;29709;52.396;16.796;2023-11-21T15:57:25;101885.98;;;1.71;82.74
44044;BME280;29709;52.396;16.796;2023-11-21T16:00:39;101882.30;;;1.72;82.32
44044;BME280;29709;52.396;16.796;2023-11-21T16:03:55;101888.69;;;1.71;82.19
44044;BME280;29709;52.396;16.796;2023-11-21T16:07:10;101887.90;;;1.69;82.02
44044;BME280;29709;52.396;16.796;2023-11-21T16:10:24;101893.83;;;1.76;82.63
44044;BME280;29709;52.396;16.796;2023-11-21T16:13:37;101900.95;;;1.78;81.90
44044;BME280;29709;52.396;16.796;2023-11-21T16:16:54;101909.08;;;1.78;82.09
44044;BME280;29709;52.396;16.796;2023-11-21T16:20:08;101910.97;;;1.76;82.32
44044;BME280;29709;52.396;16.796;2023-11-21T16:23:27;101911.84;;;1.77;82.02
44044;BME280;29709;52.396;16.796;2023-11-21T16:26:45;101921.66;;;1.79;82.22
44044;BME280;29709;52.396;16.796;2023-11-21T16:29:58;101916.25;;;1.79;82.04
44044;BME280;29709;52.396;16.796;2023-11-21T16:33:12;101926.99;;;1.81;81.72
44044;BME280;29709;52.396;16.796;2023-11-21T16:36:25;101931.63;;;1.79;82.26
44044;BME280;29709;52.396;16.796;2023-11-21T16:39:42;101935.45;;;1.74;81.26
44044;BME280;29709;52.396;16.796;2023-11-21T16:42:55;101940.96;;;1.73;81.24
44044;BME280;29709;52.396;16.796;2023-11-21T16:46:11;101940.50;;;1.65;81.33
44044;BME280;29709;52.396;16.796;2023-11-21T16:49:25;101952.30;;;1.64;81.62
44044;BME280;29709;52.396;16.796;2023-11-21T16:52:42;101959.64;;;1.62;81.35
44044;BME280;29709;52.396;16.796;2023-11-21T16:55:57;101958.07;;;1.58;81.47
44044;BME280;29709;52.396;16.796;2023-11-21T16:59:11;101965.15;;;1.60;81.77
44044;BME280;29709;52.396;16.796;2023-11-21T17:02:24;101976.95;;;1.59;81.04
44044;BME280;29709;52.396;16.796;2023-11-21T17:05:38;101977.03;;;1.58;81.12
44044;BME280;29709;52.396;16.796;2023-11-21T17:08:56;101974.38;;;1.56;81.37
44044;BME280;29709;52.396;16.796;2023-11-21T17:12:14;101985.39;;;1.53;81.19
44044;BME280;29709;52.396;16.796;2023-11-21T17:18:54;101976.21;;;1.56;81.01
44044;BME280;29709;52.396;16.796;2023-11-21T17:22:08;101982.68;;;1.53;80.39
44044;BME280;29709;52.396;16.796;2023-11-21T17:25:22;101984.52;;;1.53;80.61
44044;BME280;29709;52.396;16.796;2023-11-21T17:28:35;101988.19;;;1.52;80.47
44044;BME280;29709;52.396;16.796;2023-11-21T17:31:50;101998.76;;;1.56;80.84
44044;BME280;29709;52.396;16.796;2023-11-21T17:35:04;101999.58;;;1.58;80.70
44044;BME280;29709;52.396;16.796;2023-11-21T17:38:17;102003.96;;;1.61;80.00
44044;BME280;29709;52.396;16.796;2023-11-21T17:41:31;101993.20;;;1.59;79.72
44044;BME280;29709;52.396;16.796;2023-11-21T17:44:44;102011.22;;;1.60;80.14
44044;BME280;29709;52.396;16.796;2023-11-21T17:47:58;102020.43;;;1.73;80.77
44044;BME280;29709;52.396;16.796;2023-11-21T17:51:13;102013.91;;;1.78;80.57
44044;BME280;29709;52.396;16.796;2023-11-21T17:54:26;102022.91;;;1.78;80.04
44044;BME280;29709;52.396;16.796;2023-11-21T17:57:40;102026.90;;;1.71;79.70
44044;BME280;29709;52.396;16.796;2023-11-21T18:00:55;102036.22;;;1.65;79.69
44044;BME280;29709;52.396;16.796;2023-11-21T18:04:09;102041.80;;;1.62;80.09
44044;BME280;29709;52.396;16.796;2023-11-21T18:07:26;102036.65;;;1.58;79.60